Time,TemperatureF,DewpointF,PressureIn,WindDirection,WindDirectionDegrees,WindSpeedMPH,WindSpeedGustMPH,Humidity,HourlyPrecipIn,Conditions,Clouds,dailyrainin,SoftwareType,DateUTC
2013-06-19 00:01:00,55.4,49.0,30.77,NW,315,1.1,1.1,79,0.00,,BKN055,0.00,VWS V14.00,2013-06-19 07:01:00,
2013-06-19 00:06:00,55.4,49.0,30.77,NW,315,2.9,2.9,79,0.00,,OVC075,0.00,VWS V14.00,2013-06-19 07:06:00,
2013-06-19 00:11:00,55.2,48.5,30.77,NW,315,0.0,0.0,78,0.00,,OVC075,0.00,VWS V14.00,2013-06-19 07:11:00,
2013-06-19 00:16:00,55.2,48.1,30.77,NW,315,7.1,7.1,77,0.00,,OVC075,0.00,VWS V14.00,2013-06-19 07:16:00,
2013-06-19 00:21:00,55.2,48.1,30.78,NW,315,0.0,0.0,77,0.00,,OVC075,0.00,VWS V14.00,2013-06-19 07:21:00,
2013-06-19 00:26:00,55.2,48.1,30.78,NW,315,0.0,0.0,77,0.00,,OVC075,0.00,VWS V14.00,2013-06-19 07:26:00,
2013-06-19 00:31:00,55.2,48.1,30.78,NW,315,0.0,0.0,77,0.00,,OVC075,0.00,VWS V14.00,2013-06-19 07:31:00,
2013-06-19 00:36:00,55.2,48.1,30.78,NW,315,0.0,0.0,77,0.00,,OVC075,0.00,VWS V14.00,2013-06-19 07:36:00,
2013-06-19 00:41:00,55.0,47.9,30.78,NW,315,0.0,0.0,77,0.00,,OVC075,0.00,VWS V14.00,2013-06-19 07:41:00,
2013-06-19 00:46:00,55.0,47.9,30.78,NW,315,0.0,0.0,77,0.00,,OVC075,0.00,VWS V14.00,2013-06-19 07:46:00,
2013-06-19 00:51:00,55.0,47.9,30.78,NW,315,0.0,0.0,77,0.00,,OVC075,0.00,VWS V14.00,2013-06-19 07:51:00,
2013-06-19 00:55:00,54.8,47.7,30.78,NW,315,0.0,0.0,77,0.00,,OVC075,0.00,VWS V14.00,2013-06-19 07:55:00,
2013-06-19 01:00:00,54.8,47.7,30.78,WNW,292,0.0,0.0,77,0.00,,OVC075,0.00,VWS V14.00,2013-06-19 08:00:00,
2013-06-19 01:05:00,54.8,47.7,30.77,West,270,2.0,2.0,77,0.00,,OVC075,0.00,VWS V14.00,2013-06-19 08:05:00,
2013-06-19 01:10:00,54.8,47.7,30.77,West,270,1.1,1.1,77,0.00,,OVC075,0.00,VWS V14.00,2013-06-19 08:10:00,
2013-06-19 01:15:00,54.6,47.5,30.77,West,270,1.5,1.5,77,0.00,,OVC075,0.00,VWS V14.00,2013-06-19 08:15:00,
2013-06-19 01:20:00,54.5,47.8,30.77,West,270,3.1,3.1,78,0.00,,OVC075,0.00,VWS V14.00,2013-06-19 08:20:00,
2013-06-19 01:25:00,54.3,47.9,30.76,West,270,1.7,1.7,79,0.00,,OVC075,0.00,VWS V14.00,2013-06-19 08:25:00,
2013-06-19 01:30:00,54.1,47.7,30.77,West,270,0.0,0.0,79,0.00,,OVC075,0.00,VWS V14.00,2013-06-19 08:30:00,
2013-06-19 01:35:00,53.9,47.5,30.77,West,270,0.0,0.0,79,0.00,,OVC075,0.00,VWS V14.00,2013-06-19 08:35:00,
2013-06-19 01:40:00,53.7,47.7,30.77,West,270,0.0,0.0,80,0.00,,OVC075,0.00,VWS V14.00,2013-06-19 08:40:00,
2013-06-19 01:45:00,53.7,47.7,30.76,West,270,0.0,0.0,80,0.00,,OVC075,0.00,VWS V14.00,2013-06-19 08:45:00,
2013-06-19 01:50:00,53.7,47.7,30.76,West,270,0.0,0.0,80,0.00,,OVC075,0.00,VWS V14.00,2013-06-19 08:50:00,
2013-06-19 01:55:00,53.7,47.7,30.76,West,270,2.0,2.0,80,0.00,,OVC075,0.00,VWS V14.00,2013-06-19 08:55:00,
2013-06-19 02:00:00,53.6,47.6,30.76,West,270,3.3,3.3,80,0.00,,OVC075,0.00,VWS V14.00,2013-06-19 09:00:00,
2013-06-19 02:05:00,53.4,47.4,30.76,West,270,0.0,0.0,80,0.00,,OVC080,0.00,VWS V14.00,2013-06-19 09:05:00,
2013-06-19 02:10:00,53.4,47.4,30.76,West,270,0.0,0.0,80,0.00,,OVC080,0.00,VWS V14.00,2013-06-19 09:10:00,
2013-06-19 02:15:00,53.4,47.4,30.76,West,270,0.0,0.0,80,0.00,,OVC080,0.00,VWS V14.00,2013-06-19 09:15:00,
2013-06-19 02:20:00,53.4,47.4,30.76,West,270,0.0,0.0,80,0.00,,OVC080,0.00,VWS V14.00,2013-06-19 09:20:00,
2013-06-19 02:25:00,53.4,47.4,30.76,West,270,0.0,0.0,80,0.00,,OVC080,0.00,VWS V14.00,2013-06-19 09:25:00,
2013-06-19 02:30:00,53.4,47.4,30.76,West,270,0.0,0.0,80,0.00,,OVC080,0.00,VWS V14.00,2013-06-19 09:30:00,
2013-06-19 02:35:00,53.4,47.4,30.76,West,270,0.0,0.0,80,0.00,,OVC080,0.00,VWS V14.00,2013-06-19 09:35:00,
2013-06-19 02:40:00,53.4,47.4,30.76,West,270,0.0,0.0,80,0.00,,OVC080,0.00,VWS V14.00,2013-06-19 09:40:00,
2013-06-19 02:45:00,53.4,47.4,30.76,West,270,0.0,0.0,80,0.00,,OVC080,0.00,VWS V14.00,2013-06-19 09:45:00,
2013-06-19 02:50:00,53.2,47.2,30.76,West,270,0.0,0.0,80,0.00,,OVC080,0.00,VWS V14.00,2013-06-19 09:50:00,
2013-06-19 02:55:00,53.2,47.2,30.76,West,270,0.0,0.0,80,0.00,,OVC080,0.00,VWS V14.00,2013-06-19 09:55:00,
2013-06-19 03:00:00,52.8,46.8,30.76,West,270,0.0,0.0,80,0.00,,OVC080,0.00,VWS V14.00,2013-06-19 10:00:00,
2013-06-19 03:05:00,52.8,46.8,30.76,West,270,0.0,0.0,80,0.00,,BKN047,0.00,VWS V14.00,2013-06-19 10:05:00,
2013-06-19 03:10:00,52.8,47.1,30.76,West,270,0.0,0.0,81,0.00,,BKN047,0.00,VWS V14.00,2013-06-19 10:10:00,
2013-06-19 03:15:00,52.8,47.1,30.76,West,270,0.0,0.0,81,0.00,,BKN047,0.00,VWS V14.00,2013-06-19 10:15:00,
2013-06-19 03:20:00,52.7,47.0,30.76,West,270,0.0,0.0,81,0.00,,BKN047,0.00,VWS V14.00,2013-06-19 10:20:00,
2013-06-19 03:25:00,52.7,47.0,30.76,West,270,0.0,0.0,81,0.00,,BKN047,0.00,VWS V14.00,2013-06-19 10:25:00,
2013-06-19 03:30:00,52.5,46.8,30.76,West,270,0.0,0.0,81,0.00,,BKN047,0.00,VWS V14.00,2013-06-19 10:30:00,
2013-06-19 03:35:00,52.5,46.8,30.76,West,270,0.0,0.0,81,0.00,,BKN047,0.00,VWS V14.00,2013-06-19 10:35:00,
2013-06-19 03:40:00,52.3,46.7,30.76,West,270,0.0,0.0,81,0.00,,BKN047,0.00,VWS V14.00,2013-06-19 10:40:00,
2013-06-19 03:45:00,52.3,46.7,30.76,West,270,0.0,0.0,81,0.00,,BKN047,0.00,VWS V14.00,2013-06-19 10:45:00,
2013-06-19 03:50:00,52.3,46.7,30.76,West,270,0.0,0.0,81,0.00,,BKN047,0.00,VWS V14.00,2013-06-19 10:50:00,
2013-06-19 03:55:00,52.3,46.7,30.76,West,270,0.0,0.0,81,0.00,,BKN047,0.00,VWS V14.00,2013-06-19 10:55:00,
2013-06-19 04:00:00,52.3,47.0,30.76,West,270,0.0,0.0,82,0.00,,BKN047,0.00,VWS V14.00,2013-06-19 11:00:00,
2013-06-19 04:05:00,52.5,47.2,30.76,West,270,0.0,0.0,82,0.00,,BKN050,0.00,VWS V14.00,2013-06-19 11:05:00,
2013-06-19 04:10:00,52.7,47.4,30.76,West,270,0.0,0.0,82,0.00,,BKN050,0.00,VWS V14.00,2013-06-19 11:10:00,
2013-06-19 04:15:00,52.8,47.5,30.76,West,270,0.0,0.0,82,0.00,,BKN050,0.00,VWS V14.00,2013-06-19 11:15:00,
2013-06-19 04:20:00,52.8,47.1,30.76,West,270,0.0,0.0,81,0.00,,BKN050,0.00,VWS V14.00,2013-06-19 11:20:00,
2013-06-19 04:25:00,52.8,47.1,30.76,West,270,0.0,0.0,81,0.00,,BKN050,0.00,VWS V14.00,2013-06-19 11:25:00,
2013-06-19 04:30:00,53.2,47.5,30.76,West,270,0.0,0.0,81,0.00,,BKN050,0.00,VWS V14.00,2013-06-19 11:30:00,
2013-06-19 04:35:00,53.2,47.9,30.76,West,270,0.0,0.0,82,0.00,,BKN050,0.00,VWS V14.00,2013-06-19 11:35:00,
2013-06-19 04:40:00,53.0,47.3,30.76,West,270,0.0,0.0,81,0.00,,BKN050,0.00,VWS V14.00,2013-06-19 11:40:00,
2013-06-19 04:45:00,53.0,47.3,30.76,West,270,0.0,0.0,81,0.00,,BKN050,0.00,VWS V14.00,2013-06-19 11:45:00,
2013-06-19 04:50:00,53.2,47.5,30.76,West,270,0.0,0.0,81,0.00,,BKN050,0.00,VWS V14.00,2013-06-19 11:50:00,
2013-06-19 04:55:00,53.2,47.5,30.76,West,270,0.0,0.0,81,0.00,,BKN050,0.00,VWS V14.00,2013-06-19 11:55:00,
2013-06-19 05:00:00,53.4,47.7,30.76,WNW,292,0.0,0.0,81,0.00,,BKN050,0.00,VWS V14.00,2013-06-19 12:00:00,
2013-06-19 05:05:00,53.4,47.7,30.76,North,0,0.0,0.0,81,0.00,,BKN050,0.00,VWS V14.00,2013-06-19 12:05:00,
2013-06-19 05:10:00,53.4,47.7,30.76,North,0,4.6,4.6,81,0.00,,BKN050,0.00,VWS V14.00,2013-06-19 12:10:00,
2013-06-19 05:15:00,53.4,47.7,30.77,North,0,0.0,0.0,81,0.00,,BKN050,0.00,VWS V14.00,2013-06-19 12:15:00,
2013-06-19 05:20:00,53.4,48.0,30.77,North,0,0.0,0.0,82,0.00,,BKN050,0.00,VWS V14.00,2013-06-19 12:20:00,
2013-06-19 05:25:00,53.4,48.0,30.77,North,0,4.9,4.9,82,0.00,,BKN050,0.00,VWS V14.00,2013-06-19 12:25:00,
2013-06-19 05:30:00,53.4,48.0,30.76,North,0,0.0,0.0,82,0.00,,BKN050,0.00,VWS V14.00,2013-06-19 12:30:00,
2013-06-19 05:35:00,53.4,48.0,30.76,North,0,0.6,0.6,82,0.00,,BKN050,0.00,VWS V14.00,2013-06-19 12:35:00,
2013-06-19 05:40:00,53.2,47.9,30.76,North,0,1.3,1.3,82,0.00,,BKN050,0.00,VWS V14.00,2013-06-19 12:40:00,
2013-06-19 05:45:00,53.2,47.9,30.77,NE,45,0.0,0.0,82,0.00,,OVC046,0.00,VWS V14.00,2013-06-19 12:45:00,
2013-06-19 05:50:00,53.4,47.7,30.77,NE,45,0.0,0.0,81,0.00,,OVC046,0.00,VWS V14.00,2013-06-19 12:50:00,
2013-06-19 05:55:00,53.4,47.7,30.77,NE,45,2.9,2.9,81,0.00,,OVC046,0.00,VWS V14.00,2013-06-19 12:55:00,
2013-06-19 06:00:00,53.4,47.7,30.78,NE,45,0.0,0.0,81,0.00,,OVC046,0.00,VWS V14.00,2013-06-19 13:00:00,
2013-06-19 06:05:00,53.4,47.7,30.77,NE,45,0.0,0.0,81,0.00,,OVC046,0.00,VWS V14.00,2013-06-19 13:05:00,
2013-06-19 06:10:00,53.4,47.7,30.77,NE,45,0.0,0.0,81,0.00,,OVC046,0.00,VWS V14.00,2013-06-19 13:10:00,
2013-06-19 06:15:00,53.7,47.7,30.77,NE,45,0.0,0.0,80,0.00,,OVC046,0.00,VWS V14.00,2013-06-19 13:15:00,
2013-06-19 06:20:00,53.7,47.7,30.77,NE,45,0.0,0.0,80,0.00,,OVC046,0.00,VWS V14.00,2013-06-19 13:20:00,
2013-06-19 06:25:00,53.9,47.9,30.78,NE,45,0.0,0.0,80,0.00,,OVC060,0.00,VWS V14.00,2013-06-19 13:25:00,
2013-06-19 06:30:00,53.9,47.9,30.77,NE,45,0.0,0.0,80,0.00,,OVC060,0.00,VWS V14.00,2013-06-19 13:30:00,
2013-06-19 06:35:00,54.1,48.1,30.77,NE,45,0.0,0.0,80,0.00,,OVC060,0.00,VWS V14.00,2013-06-19 13:35:00,
2013-06-19 06:40:00,54.3,48.3,30.77,NE,45,0.0,0.0,80,0.00,,OVC060,0.00,VWS V14.00,2013-06-19 13:40:00,
2013-06-19 06:45:00,54.3,48.3,30.77,NE,45,0.0,0.0,80,0.00,,OVC060,0.00,VWS V14.00,2013-06-19 13:45:00,
2013-06-19 06:50:00,54.6,48.6,30.77,NE,45,0.0,0.0,80,0.00,,OVC060,0.00,VWS V14.00,2013-06-19 13:50:00,
2013-06-19 06:55:00,54.8,48.4,30.78,NE,45,0.0,0.0,79,0.00,,OVC060,0.00,VWS V14.00,2013-06-19 13:55:00,
2013-06-19 07:00:00,54.8,48.4,30.78,NE,45,0.0,0.0,79,0.00,,OVC060,0.00,VWS V14.00,2013-06-19 14:00:00,
2013-06-19 07:05:00,54.8,48.4,30.78,NE,45,0.0,0.0,79,0.00,,OVC060,0.00,VWS V14.00,2013-06-19 14:05:00,
2013-06-19 07:10:00,55.0,48.6,30.78,NE,45,0.0,0.0,79,0.00,,OVC060,0.00,VWS V14.00,2013-06-19 14:10:00,
2013-06-19 07:15:00,54.8,48.8,30.78,NE,45,0.0,0.0,80,0.00,,OVC060,0.00,VWS V14.00,2013-06-19 14:15:00,
2013-06-19 07:20:00,54.8,49.1,30.78,NE,45,0.0,0.0,81,0.00,,OVC060,0.00,VWS V14.00,2013-06-19 14:20:00,
2013-06-19 07:25:00,54.6,49.2,30.78,NE,45,0.0,0.0,82,0.00,,OVC060,0.00,VWS V14.00,2013-06-19 14:25:00,
2013-06-19 07:30:00,55.0,49.6,30.78,NE,45,0.0,0.0,82,0.00,,OVC060,0.00,VWS V14.00,2013-06-19 14:30:00,
2013-06-19 07:35:00,55.2,49.8,30.78,NE,45,0.0,0.0,82,0.00,,OVC060,0.00,VWS V14.00,2013-06-19 14:35:00,
2013-06-19 07:40:00,55.5,50.1,30.78,NE,45,0.0,0.0,82,0.00,,OVC060,0.00,VWS V14.00,2013-06-19 14:40:00,
2013-06-19 07:45:00,56.4,50.7,30.78,NE,45,0.0,0.0,81,0.00,,OVC060,0.00,VWS V14.00,2013-06-19 14:45:00,
2013-06-19 07:50:00,57.5,51.4,30.78,NE,45,0.0,0.0,80,0.00,,OVC060,0.00,VWS V14.00,2013-06-19 14:50:00,
2013-06-19 07:55:00,58.2,51.7,30.78,NE,45,0.0,0.0,79,0.00,,OVC060,0.00,VWS V14.00,2013-06-19 14:55:00,
2013-06-19 08:00:00,59.7,52.1,30.79,NE,45,0.0,0.0,76,0.00,,OVC060,0.00,VWS V14.00,2013-06-19 15:00:00,
2013-06-19 08:05:00,60.6,52.6,30.78,NE,45,0.0,0.0,75,0.00,,OVC075,0.00,VWS V14.00,2013-06-19 15:05:00,
2013-06-19 08:10:00,63.6,54.4,30.78,NE,45,0.0,0.0,72,0.00,,OVC075,0.00,VWS V14.00,2013-06-19 15:10:00,
2013-06-19 08:15:00,66.3,54.6,30.78,SE,135,1.1,1.1,66,0.00,,OVC075,0.00,VWS V14.00,2013-06-19 15:15:00,
2013-06-19 08:20:00,65.1,52.6,30.78,SE,135,0.8,0.8,64,0.00,,OVC075,0.00,VWS V14.00,2013-06-19 15:20:00,
2013-06-19 08:25:00,64.2,52.6,30.78,SE,135,0.0,0.0,66,0.00,,OVC075,0.00,VWS V14.00,2013-06-19 15:25:00,
2013-06-19 08:30:00,65.1,53.1,30.78,SE,135,0.0,0.0,65,0.00,,OVC075,0.00,VWS V14.00,2013-06-19 15:30:00,
2013-06-19 08:35:00,66.0,53.5,30.78,ESE,112,0.0,0.0,64,0.00,,OVC075,0.00,VWS V14.00,2013-06-19 15:35:00,
2013-06-19 08:40:00,65.6,52.7,30.78,ESE,112,0.0,0.0,63,0.00,,OVC075,0.00,VWS V14.00,2013-06-19 15:40:00,
2013-06-19 08:45:00,63.3,50.9,30.78,ESE,112,0.0,0.0,64,0.00,,OVC075,0.00,VWS V14.00,2013-06-19 15:45:00,
2013-06-19 08:50:00,61.8,49.9,30.79,ESE,112,0.0,0.0,65,0.00,,OVC075,0.00,VWS V14.00,2013-06-19 15:50:00,
2013-06-19 08:55:00,61.1,50.1,30.79,ESE,112,0.0,0.0,67,0.00,,OVC075,0.00,VWS V14.00,2013-06-19 15:55:00,
2013-06-19 09:00:00,61.3,50.3,30.79,SE,135,0.0,0.0,67,0.00,,OVC075,0.00,VWS V14.00,2013-06-19 16:00:00,
2013-06-19 09:05:00,61.8,50.7,30.79,SE,135,2.2,2.2,67,0.00,,BKN075,0.00,VWS V14.00,2013-06-19 16:05:00,
2013-06-19 09:10:00,63.1,50.7,30.79,ESE,112,2.9,2.9,64,0.00,,BKN075,0.00,VWS V14.00,2013-06-19 16:10:00,
2013-06-19 09:15:00,63.3,50.5,30.79,SE,135,1.5,1.5,63,0.00,,BKN075,0.00,VWS V14.00,2013-06-19 16:15:00,
2013-06-19 09:20:00,62.0,49.7,30.79,SE,135,2.9,2.9,64,0.00,,BKN075,0.00,VWS V14.00,2013-06-19 16:20:00,
2013-06-19 09:25:00,61.5,50.0,30.79,SE,135,2.2,2.2,66,0.00,,BKN075,0.00,VWS V14.00,2013-06-19 16:25:00,
2013-06-19 09:30:00,61.5,50.5,30.79,SE,135,0.8,0.8,67,0.00,,BKN075,0.00,VWS V14.00,2013-06-19 16:30:00,
2013-06-19 09:35:00,63.1,51.6,30.79,SSE,158,0.0,0.0,66,0.00,,BKN075,0.00,VWS V14.00,2013-06-19 16:35:00,
2013-06-19 09:40:00,65.1,51.8,30.79,SE,135,0.0,0.0,62,0.00,,BKN075,0.00,VWS V14.00,2013-06-19 16:40:00,
2013-06-19 09:45:00,64.2,50.9,30.79,SE,135,0.0,0.0,62,0.00,,BKN075,0.00,VWS V14.00,2013-06-19 16:45:00,
2013-06-19 09:50:00,63.5,50.7,30.78,SE,135,0.0,0.0,63,0.00,,BKN075,0.00,VWS V14.00,2013-06-19 16:50:00,
2013-06-19 09:55:00,62.7,49.9,30.78,SE,135,0.0,0.0,63,0.00,,BKN075,0.00,VWS V14.00,2013-06-19 16:55:00,
2013-06-19 10:00:00,62.4,49.7,30.78,SSE,158,4.9,4.9,63,0.00,,BKN075,0.00,VWS V14.00,2013-06-19 17:00:00,
2013-06-19 10:05:00,61.5,49.2,30.78,South,180,2.0,2.0,64,0.00,,BKN070,0.00,VWS V14.00,2013-06-19 17:05:00,
2013-06-19 10:10:00,60.9,49.1,30.78,SSE,158,0.0,0.0,65,0.00,,BKN070,0.00,VWS V14.00,2013-06-19 17:10:00,
2013-06-19 10:15:00,60.6,49.2,30.78,SSE,158,1.5,1.5,66,0.00,,BKN070,0.00,VWS V14.00,2013-06-19 17:15:00,
2013-06-19 10:20:00,59.9,49.3,30.78,SE,135,0.0,0.0,68,0.00,,BKN070,0.00,VWS V14.00,2013-06-19 17:20:00,
2013-06-19 10:25:00,59.5,49.3,30.78,SE,135,0.0,0.0,69,0.00,,BKN070,0.00,VWS V14.00,2013-06-19 17:25:00,
2013-06-19 10:30:00,59.1,49.0,30.78,SE,135,0.0,0.0,69,0.00,,BKN070,0.00,VWS V14.00,2013-06-19 17:30:00,
2013-06-19 10:35:00,59.5,49.7,30.78,SE,135,0.0,0.0,70,0.00,,BKN070,0.00,VWS V14.00,2013-06-19 17:35:00,
2013-06-19 10:40:00,60.6,50.4,30.78,SE,135,0.0,0.0,69,0.00,,BKN070,0.00,VWS V14.00,2013-06-19 17:40:00,
2013-06-19 10:45:00,62.4,51.3,30.78,SE,135,2.4,2.4,67,0.00,,BKN070,0.00,VWS V14.00,2013-06-19 17:45:00,
2013-06-19 10:50:00,63.1,50.3,30.78,SE,135,4.0,4.0,63,0.00,,BKN070,0.00,VWS V14.00,2013-06-19 17:50:00,
2013-06-19 10:55:00,63.8,50.1,30.78,SE,135,3.5,3.5,61,0.00,,BKN070,0.00,VWS V14.00,2013-06-19 17:55:00,
2013-06-19 11:00:00,64.0,49.4,30.78,SE,135,4.9,4.9,59,0.00,,BKN070,0.00,VWS V14.00,2013-06-19 18:00:00,
2013-06-19 11:05:00,63.5,50.3,30.78,SE,135,4.9,4.9,62,0.00,,OVC070,0.00,VWS V14.00,2013-06-19 18:05:00,
2013-06-19 11:10:00,63.1,49.9,30.79,SE,135,3.8,3.8,62,0.00,,OVC070,0.00,VWS V14.00,2013-06-19 18:10:00,
2013-06-19 11:15:00,63.1,49.9,30.78,ESE,112,4.2,4.2,62,0.00,,OVC070,0.00,VWS V14.00,2013-06-19 18:15:00,
2013-06-19 11:20:00,63.1,49.9,30.79,SE,135,3.3,3.3,62,0.00,,OVC070,0.00,VWS V14.00,2013-06-19 18:20:00,
2013-06-19 11:25:00,62.7,49.5,30.79,SE,135,0.0,0.0,62,0.00,,OVC070,0.00,VWS V14.00,2013-06-19 18:25:00,
2013-06-19 11:30:00,62.4,48.8,30.79,SE,135,2.6,2.6,61,0.00,,OVC070,0.00,VWS V14.00,2013-06-19 18:30:00,
2013-06-19 11:35:00,61.7,48.6,30.79,SE,135,0.0,0.0,62,0.00,,OVC070,0.00,VWS V14.00,2013-06-19 18:35:00,
2013-06-19 11:40:00,61.7,49.4,30.79,SE,135,0.0,0.0,64,0.00,,OVC070,0.00,VWS V14.00,2013-06-19 18:40:00,
2013-06-19 11:45:00,62.6,49.8,30.79,SE,135,0.0,0.0,63,0.00,,OVC070,0.00,VWS V14.00,2013-06-19 18:45:00,
2013-06-19 11:50:00,63.1,50.3,30.79,SE,135,0.0,0.0,63,0.00,,OVC070,0.00,VWS V14.00,2013-06-19 18:50:00,
2013-06-19 11:55:00,63.8,50.1,30.79,SE,135,0.0,0.0,61,0.00,,OVC070,0.00,VWS V14.00,2013-06-19 18:55:00,
2013-06-19 12:00:00,63.6,49.9,30.79,SE,135,0.4,0.4,61,0.00,,OVC070,0.00,VWS V14.00,2013-06-19 19:00:00,
2013-06-19 12:05:00,62.0,48.8,30.79,SE,135,0.0,0.0,62,0.00,,-RA,0.00,VWS V14.00,2013-06-19 19:05:00,
2013-06-19 12:09:00,61.5,48.8,30.79,SE,135,0.0,0.0,63,0.00,,-RA,0.00,VWS V14.00,2013-06-19 19:09:00,
2013-06-19 12:14:00,60.6,48.4,30.79,SE,135,0.0,0.0,64,0.00,,-RA,0.00,VWS V14.00,2013-06-19 19:14:00,
2013-06-19 12:19:00,60.0,48.6,30.79,SE,135,0.0,0.0,66,0.00,,-RA,0.00,VWS V14.00,2013-06-19 19:19:00,
2013-06-19 12:24:00,59.9,48.9,30.80,SE,135,0.0,0.0,67,0.00,,-RA,0.00,VWS V14.00,2013-06-19 19:24:00,
2013-06-19 12:29:00,59.9,48.5,30.80,SE,135,0.0,0.0,66,0.00,,-RA,0.00,VWS V14.00,2013-06-19 19:29:00,
2013-06-19 12:34:00,61.1,50.1,30.79,ESE,112,0.0,0.0,67,0.00,,-RA,0.00,VWS V14.00,2013-06-19 19:34:00,
2013-06-19 12:39:00,62.7,51.2,30.79,ESE,112,0.0,0.0,66,0.00,,-RA,0.00,VWS V14.00,2013-06-19 19:39:00,
2013-06-19 12:44:00,65.1,51.8,30.79,ESE,112,0.0,0.0,62,0.00,,-RA,0.00,VWS V14.00,2013-06-19 19:44:00,
2013-06-19 12:49:00,67.8,53.0,30.79,ESE,112,0.0,0.0,59,0.00,,-RA,0.00,VWS V14.00,2013-06-19 19:49:00,
2013-06-19 12:54:00,69.8,53.4,30.79,North,0,0.0,0.0,56,0.00,,-RA,0.00,VWS V14.00,2013-06-19 19:54:00,
2013-06-19 12:59:00,70.7,54.2,30.79,East,90,0.0,0.0,56,0.00,,-RA,0.00,VWS V14.00,2013-06-19 19:59:00,
2013-06-19 13:04:00,70.5,52.6,30.79,East,90,0.0,0.0,53,0.00,,OVC060,0.00,VWS V14.00,2013-06-19 20:04:00,
2013-06-19 13:09:00,68.7,50.9,30.79,East,90,0.0,0.0,53,0.00,,OVC060,0.00,VWS V14.00,2013-06-19 20:09:00,
2013-06-19 13:14:00,66.7,50.0,30.79,East,90,0.0,0.0,55,0.00,,OVC060,0.00,VWS V14.00,2013-06-19 20:14:00,
2013-06-19 13:19:00,64.7,50.1,30.79,East,90,0.0,0.0,59,0.00,,OVC060,0.00,VWS V14.00,2013-06-19 20:19:00,
2013-06-19 13:24:00,63.1,49.5,30.79,East,90,0.0,0.0,61,0.00,,OVC060,0.00,VWS V14.00,2013-06-19 20:24:00,
2013-06-19 13:29:00,61.8,49.9,30.80,East,90,0.0,0.0,65,0.00,,OVC060,0.00,VWS V14.00,2013-06-19 20:29:00,
2013-06-19 13:34:00,60.9,50.3,30.80,SSE,158,0.0,0.0,68,0.00,,OVC060,0.00,VWS V14.00,2013-06-19 20:34:00,
2013-06-19 13:39:00,60.4,49.0,30.80,SSE,158,0.0,0.0,66,0.00,,OVC060,0.00,VWS V14.00,2013-06-19 20:39:00,
2013-06-19 13:44:00,60.9,49.5,30.80,SSE,158,3.3,3.3,66,0.00,,OVC060,0.00,VWS V14.00,2013-06-19 20:44:00,
2013-06-19 13:49:00,60.2,49.6,30.80,NNE,22,10.7,10.7,68,0.00,,OVC060,0.00,VWS V14.00,2013-06-19 20:49:00,
2013-06-19 13:54:00,59.0,50.0,30.80,NNE,22,8.7,8.7,72,0.00,,OVC060,0.00,VWS V14.00,2013-06-19 20:54:00,
2013-06-19 13:59:00,59.1,49.0,30.81,NNE,22,3.5,3.5,69,0.00,,OVC060,0.00,VWS V14.00,2013-06-19 20:59:00,
2013-06-19 14:04:00,60.0,49.8,30.81,NNE,22,0.0,0.0,69,0.00,,-RA,0.00,VWS V14.00,2013-06-19 21:04:00,
2013-06-19 14:09:00,61.5,50.8,30.81,NNE,22,0.0,0.0,68,0.00,,-RA,0.00,VWS V14.00,2013-06-19 21:09:00,
2013-06-19 14:14:00,64.0,52.4,30.80,NNE,22,0.0,0.0,66,0.00,,-RA,0.00,VWS V14.00,2013-06-19 21:14:00,
2013-06-19 14:19:00,65.8,52.0,30.81,NNE,22,0.0,0.0,61,0.00,,-RA,0.00,VWS V14.00,2013-06-19 21:19:00,
2013-06-19 14:24:00,66.7,53.3,30.81,NNE,22,0.0,0.0,62,0.00,,-RA,0.00,VWS V14.00,2013-06-19 21:24:00,
2013-06-19 14:29:00,67.1,53.2,30.81,NNE,22,0.0,0.0,61,0.00,,-RA,0.00,VWS V14.00,2013-06-19 21:29:00,
2013-06-19 14:34:00,67.2,51.9,30.81,NNE,22,0.0,0.0,58,0.00,,-RA,0.00,VWS V14.00,2013-06-19 21:34:00,
2013-06-19 14:39:00,66.9,51.7,30.81,NNE,22,0.0,0.0,58,0.00,,-RA,0.00,VWS V14.00,2013-06-19 21:39:00,
2013-06-19 14:44:00,67.1,51.8,30.81,NNE,22,1.7,1.7,58,0.00,,-RA,0.00,VWS V14.00,2013-06-19 21:44:00,
2013-06-19 14:49:00,66.9,51.2,30.81,NNE,22,0.0,0.0,57,0.00,,-RA,0.00,VWS V14.00,2013-06-19 21:49:00,
2013-06-19 14:54:00,66.5,50.3,30.81,NNE,22,0.0,0.0,56,0.00,,-RA,0.00,VWS V14.00,2013-06-19 21:54:00,
2013-06-19 14:59:00,66.7,50.5,30.81,NNE,22,0.0,0.0,56,0.00,,-RA,0.00,VWS V14.00,2013-06-19 21:59:00,
2013-06-19 15:04:00,67.4,51.2,30.81,NNE,22,0.0,0.0,56,0.00,,OVC070,0.00,VWS V14.00,2013-06-19 22:04:00,
2013-06-19 15:09:00,68.3,51.5,30.81,NNE,22,4.6,4.6,55,0.00,,OVC070,0.00,VWS V14.00,2013-06-19 22:09:00,
2013-06-19 15:14:00,67.8,50.6,30.81,North,0,8.9,8.9,54,0.00,,OVC070,0.00,VWS V14.00,2013-06-19 22:14:00,
2013-06-19 15:19:00,66.5,50.3,30.81,North,0,1.5,1.5,56,0.00,,OVC070,0.00,VWS V14.00,2013-06-19 22:19:00,
2013-06-19 15:24:00,65.8,50.6,30.81,NNE,22,7.6,7.6,58,0.00,,OVC070,0.00,VWS V14.00,2013-06-19 22:24:00,
2013-06-19 15:29:00,65.1,50.4,30.81,NNW,338,6.2,6.2,59,0.00,,OVC070,0.00,VWS V14.00,2013-06-19 22:29:00,
2013-06-19 15:34:00,64.7,50.5,30.81,NE,45,2.4,2.4,60,0.00,,OVC070,0.00,VWS V14.00,2013-06-19 22:34:00,
2013-06-19 15:39:00,64.7,51.0,30.81,NNE,22,2.0,2.0,61,0.00,,OVC070,0.00,VWS V14.00,2013-06-19 22:39:00,
2013-06-19 15:44:00,64.5,50.8,30.81,NNE,22,4.0,4.0,61,0.00,,OVC070,0.00,VWS V14.00,2013-06-19 22:44:00,
2013-06-19 15:49:00,64.2,50.9,30.81,NNE,22,4.0,4.0,62,0.00,,OVC070,0.00,VWS V14.00,2013-06-19 22:49:00,
2013-06-19 15:54:00,64.0,50.7,30.81,NNE,22,0.0,0.0,62,0.00,,OVC070,0.00,VWS V14.00,2013-06-19 22:54:00,
2013-06-19 15:59:00,63.6,50.4,30.81,NNE,22,1.7,1.7,62,0.00,,OVC070,0.00,VWS V14.00,2013-06-19 22:59:00,
2013-06-19 16:04:00,64.0,50.7,30.81,NNE,22,4.2,4.2,62,0.00,,OVC050,0.00,VWS V14.00,2013-06-19 23:04:00,
2013-06-19 16:09:00,64.9,51.6,30.81,NNE,22,2.6,2.6,62,0.00,,OVC050,0.00,VWS V14.00,2013-06-19 23:09:00,
2013-06-19 16:14:00,66.3,52.5,30.81,NNE,22,0.0,0.0,61,0.00,,OVC050,0.00,VWS V14.00,2013-06-19 23:14:00,
2013-06-19 16:19:00,67.6,52.3,30.81,North,0,0.0,0.0,58,0.00,,OVC050,0.00,VWS V14.00,2013-06-19 23:19:00,
2013-06-19 16:24:00,67.8,52.0,30.81,NNE,22,4.4,4.4,57,0.00,,OVC050,0.00,VWS V14.00,2013-06-19 23:24:00,
2013-06-19 16:29:00,68.7,51.4,30.81,North,0,3.5,3.5,54,0.00,,OVC050,0.00,VWS V14.00,2013-06-19 23:29:00,
2013-06-19 16:34:00,67.2,50.5,30.81,North,0,7.1,7.1,55,0.00,,OVC050,0.00,VWS V14.00,2013-06-19 23:34:00,
2013-06-19 16:39:00,65.8,50.6,30.81,North,0,10.9,10.9,58,0.00,,OVC050,0.00,VWS V14.00,2013-06-19 23:39:00,
2013-06-19 16:44:00,63.3,50.5,30.81,North,0,8.0,8.0,63,0.00,,OVC050,0.00,VWS V14.00,2013-06-19 23:44:00,
2013-06-19 16:49:00,61.3,50.3,30.81,NNW,338,7.1,7.1,67,0.00,,OVC050,0.00,VWS V14.00,2013-06-19 23:49:00,
2013-06-19 16:54:00,59.7,50.7,30.82,North,0,0.0,0.0,72,0.00,,OVC050,0.00,VWS V14.00,2013-06-19 23:54:00,
2013-06-19 16:59:00,59.3,50.3,30.81,North,0,0.0,0.0,72,0.00,,OVC050,0.00,VWS V14.00,2013-06-19 23:59:00,
2013-06-19 17:04:00,58.8,50.5,30.81,North,0,0.0,0.0,74,0.00,,-RA,0.00,VWS V14.00,2013-06-20 00:04:00,
2013-06-19 17:09:00,58.8,50.9,30.81,North,0,0.0,0.0,75,0.00,,-RA,0.00,VWS V14.00,2013-06-20 00:09:00,
2013-06-19 17:14:00,58.8,50.9,30.82,North,0,0.0,0.0,75,0.00,,-RA,0.00,VWS V14.00,2013-06-20 00:14:00,
2013-06-19 17:19:00,59.1,51.2,30.82,North,0,2.6,2.6,75,0.00,,-RA,0.00,VWS V14.00,2013-06-20 00:19:00,
2013-06-19 17:24:00,58.8,50.9,30.82,North,0,0.0,0.0,75,0.00,,-RA,0.00,VWS V14.00,2013-06-20 00:24:00,
2013-06-19 17:29:00,58.8,51.3,30.81,North,0,0.0,0.0,76,0.00,,-RA,0.00,VWS V14.00,2013-06-20 00:29:00,
2013-06-19 17:34:00,58.8,51.3,30.82,North,0,0.0,0.0,76,0.00,,-RA,0.00,VWS V14.00,2013-06-20 00:34:00,
2013-06-19 17:39:00,59.3,51.8,30.82,North,0,0.0,0.0,76,0.00,,-RA,0.00,VWS V14.00,2013-06-20 00:39:00,
2013-06-19 17:44:00,58.8,50.9,30.83,North,0,0.0,0.0,75,0.00,,OVC100,0.00,VWS V14.00,2013-06-20 00:44:00,
2013-06-19 17:49:00,58.4,51.2,30.83,North,0,0.0,0.0,77,0.00,,OVC100,0.00,VWS V14.00,2013-06-20 00:49:00,
2013-06-19 17:54:00,58.1,51.3,30.82,North,0,0.0,0.0,78,0.00,,OVC100,0.00,VWS V14.00,2013-06-20 00:54:00,
2013-06-19 17:59:00,58.8,52.0,30.82,North,0,0.0,0.0,78,0.00,,OVC100,0.00,VWS V14.00,2013-06-20 00:59:00,
2013-06-19 18:04:00,59.1,51.9,30.82,North,0,0.0,0.0,77,0.00,,-RA,0.00,VWS V14.00,2013-06-20 01:04:00,
2013-06-19 18:09:00,59.3,51.4,30.83,North,0,0.0,0.0,75,0.00,,-RA,0.00,VWS V14.00,2013-06-20 01:09:00,
2013-06-19 18:14:00,59.5,51.6,30.83,North,0,0.0,0.0,75,0.00,,-RA,0.00,VWS V14.00,2013-06-20 01:14:00,
2013-06-19 18:19:00,59.5,51.9,30.83,NNW,338,0.0,0.0,76,0.00,,-RA,0.00,VWS V14.00,2013-06-20 01:19:00,
2013-06-19 18:24:00,59.3,52.1,30.83,NNW,338,0.0,0.0,77,0.00,,OVC100,0.00,VWS V14.00,2013-06-20 01:24:00,
2013-06-19 18:29:00,58.8,52.0,30.84,NNW,338,0.0,0.0,78,0.00,,OVC100,0.00,VWS V14.00,2013-06-20 01:29:00,
2013-06-19 18:34:00,58.2,52.1,30.84,NW,315,0.0,0.0,80,0.00,,OVC100,0.00,VWS V14.00,2013-06-20 01:34:00,
2013-06-19 18:39:00,58.6,52.8,30.84,NW,315,0.0,0.0,81,0.00,,OVC100,0.00,VWS V14.00,2013-06-20 01:39:00,
2013-06-19 18:44:00,59.1,53.3,30.83,NW,315,0.0,0.0,81,0.00,,OVC100,0.00,VWS V14.00,2013-06-20 01:44:00,
2013-06-19 18:49:00,59.5,53.3,30.83,NW,315,0.0,0.0,80,0.00,,OVC100,0.00,VWS V14.00,2013-06-20 01:49:00,
2013-06-19 18:54:00,59.7,52.8,30.83,NW,315,0.0,0.0,78,0.00,,OVC100,0.00,VWS V14.00,2013-06-20 01:54:00,
2013-06-19 18:59:00,60.4,53.9,30.84,NW,315,0.0,0.0,79,0.00,,OVC100,0.00,VWS V14.00,2013-06-20 01:59:00,
2013-06-19 19:04:00,60.6,54.1,30.84,SSE,158,0.0,0.0,79,0.00,,-RA,0.00,VWS V14.00,2013-06-20 02:04:00,
2013-06-19 19:09:00,60.9,54.3,30.84,SSE,158,0.0,0.0,79,0.00,,-RA,0.00,VWS V14.00,2013-06-20 02:09:00,
2013-06-19 19:14:00,62.2,55.3,30.84,SSE,158,0.0,0.0,78,0.00,,-RA,0.00,VWS V14.00,2013-06-20 02:14:00,
2013-06-19 19:19:00,62.2,54.5,30.84,SSW,202,0.0,0.0,76,0.00,,-RA,0.00,VWS V14.00,2013-06-20 02:19:00,
2013-06-19 19:24:00,62.2,54.5,30.84,SSW,202,0.0,0.0,76,0.00,,-RA,0.00,VWS V14.00,2013-06-20 02:24:00,
2013-06-19 19:29:00,62.2,54.5,30.85,SSW,202,0.0,0.0,76,0.00,,-RA,0.00,VWS V14.00,2013-06-20 02:29:00,
2013-06-19 19:34:00,62.7,55.0,30.85,SSW,202,0.0,0.0,76,0.00,,-RA,0.00,VWS V14.00,2013-06-20 02:34:00,
2013-06-19 19:39:00,63.1,55.1,30.85,WSW,248,0.0,0.0,75,0.00,,-RA,0.00,VWS V14.00,2013-06-20 02:39:00,
2013-06-19 19:44:00,62.7,54.7,30.85,WSW,248,0.0,0.0,75,0.00,,-RA,0.00,VWS V14.00,2013-06-20 02:44:00,
2013-06-19 19:49:00,62.2,54.2,30.85,WSW,248,0.0,0.0,75,0.00,,-RA,0.00,VWS V14.00,2013-06-20 02:49:00,
2013-06-19 19:54:00,61.7,54.1,30.85,WSW,248,0.0,0.0,76,0.00,,-RA,0.00,VWS V14.00,2013-06-20 02:54:00,
2013-06-19 19:59:00,61.3,53.7,30.86,WSW,248,0.0,0.0,76,0.00,,-RA,0.00,VWS V14.00,2013-06-20 02:59:00,
2013-06-19 20:04:00,60.8,53.5,30.85,WSW,248,0.0,0.0,77,0.00,,BKN080,0.00,VWS V14.00,2013-06-20 03:04:00,
2013-06-19 20:09:00,60.4,53.5,30.85,South,180,3.1,3.1,78,0.00,,BKN080,0.00,VWS V14.00,2013-06-20 03:09:00,
2013-06-19 20:14:00,60.0,53.5,30.85,South,180,0.0,0.0,79,0.00,,BKN080,0.00,VWS V14.00,2013-06-20 03:14:00,
2013-06-19 20:19:00,60.0,53.8,30.85,South,180,0.0,0.0,80,0.00,,BKN080,0.00,VWS V14.00,2013-06-20 03:19:00,
2013-06-19 20:24:00,60.0,53.8,30.86,South,180,0.0,0.0,80,0.00,,BKN080,0.00,VWS V14.00,2013-06-20 03:24:00,
2013-06-19 20:29:00,61.1,55.2,30.86,South,180,0.0,0.0,81,0.00,,BKN080,0.00,VWS V14.00,2013-06-20 03:29:00,
2013-06-19 20:34:00,61.3,54.7,30.86,South,180,0.0,0.0,79,0.00,,BKN080,0.00,VWS V14.00,2013-06-20 03:34:00,
2013-06-19 20:39:00,60.9,54.3,30.86,South,180,0.0,0.0,79,0.00,,BKN080,0.00,VWS V14.00,2013-06-20 03:39:00,
2013-06-19 20:44:00,60.4,53.9,30.86,South,180,0.0,0.0,79,0.00,,BKN080,0.00,VWS V14.00,2013-06-20 03:44:00,
2013-06-19 20:49:00,59.9,53.4,30.86,South,180,0.0,0.0,79,0.00,,BKN080,0.00,VWS V14.00,2013-06-20 03:49:00,
2013-06-19 20:54:00,59.3,53.1,30.86,SE,135,0.0,0.0,80,0.00,,BKN080,0.00,VWS V14.00,2013-06-20 03:54:00,
2013-06-19 20:59:00,58.8,53.0,30.86,SE,135,0.0,0.0,81,0.00,,BKN080,0.00,VWS V14.00,2013-06-20 03:59:00,
2013-06-19 21:01:00,58.8,53.0,30.86,SE,135,0.0,0.0,81,0.00,,BKN080,0.00,VWS V14.00,2013-06-20 04:01:00,
2013-06-19 21:06:00,58.4,52.6,30.86,SE,135,0.0,0.0,81,0.00,,BKN080,0.00,VWS V14.00,2013-06-20 04:06:00,
2013-06-19 21:11:00,58.2,52.7,30.86,SE,135,0.0,0.0,82,0.00,,BKN080,0.00,VWS V14.00,2013-06-20 04:11:00,
2013-06-19 21:16:00,58.1,52.6,30.86,SE,135,0.0,0.0,82,0.00,,BKN080,0.00,VWS V14.00,2013-06-20 04:16:00,
2013-06-19 21:21:00,58.1,52.6,30.86,SE,135,0.0,0.0,82,0.00,,BKN080,0.00,VWS V14.00,2013-06-20 04:21:00,
2013-06-19 21:26:00,57.9,52.8,30.86,ESE,112,0.0,0.0,83,0.00,,BKN080,0.00,VWS V14.00,2013-06-20 04:26:00,
2013-06-19 21:31:00,57.9,52.8,30.87,ESE,112,4.0,4.0,83,0.00,,BKN080,0.00,VWS V14.00,2013-06-20 04:31:00,
2013-06-19 21:36:00,57.7,52.9,30.86,East,90,4.0,4.0,84,0.00,,BKN080,0.00,VWS V14.00,2013-06-20 04:36:00,
2013-06-19 21:41:00,57.5,52.7,30.87,East,90,0.8,0.8,84,0.00,,BKN080,0.00,VWS V14.00,2013-06-20 04:41:00,
2013-06-19 21:46:00,57.3,52.5,30.87,East,90,0.0,0.0,84,0.00,,BKN080,0.00,VWS V14.00,2013-06-20 04:46:00,
2013-06-19 21:51:00,57.3,52.5,30.87,East,90,0.0,0.0,84,0.00,,BKN080,0.00,VWS V14.00,2013-06-20 04:51:00,
2013-06-19 21:56:00,57.0,52.5,30.88,ENE,68,0.0,0.0,85,0.00,,BKN080,0.00,VWS V14.00,2013-06-20 04:56:00,
2013-06-19 22:01:00,57.0,52.5,30.88,ENE,68,0.0,0.0,85,0.00,,BKN080,0.00,VWS V14.00,2013-06-20 05:01:00,
2013-06-19 22:06:00,57.0,52.5,30.88,ENE,68,0.0,0.0,85,0.00,,OVC065,0.00,VWS V14.00,2013-06-20 05:06:00,
2013-06-19 22:11:00,56.8,52.3,30.88,ENE,68,0.0,0.0,85,0.00,,OVC065,0.00,VWS V14.00,2013-06-20 05:11:00,
2013-06-19 22:16:00,56.8,52.3,30.89,ENE,68,0.0,0.0,85,0.00,,OVC065,0.00,VWS V14.00,2013-06-20 05:16:00,
2013-06-19 22:21:00,56.8,52.3,30.89,ENE,68,0.0,0.0,85,0.00,,OVC065,0.00,VWS V14.00,2013-06-20 05:21:00,
2013-06-19 22:26:00,56.8,52.3,30.88,ENE,68,0.0,0.0,85,0.00,,OVC065,0.00,VWS V14.00,2013-06-20 05:26:00,
2013-06-19 22:31:00,56.4,52.0,30.88,ENE,68,0.0,0.0,85,0.00,,OVC065,0.00,VWS V14.00,2013-06-20 05:31:00,
2013-06-19 22:36:00,56.6,52.2,30.88,ENE,68,0.0,0.0,85,0.00,,OVC065,0.00,VWS V14.00,2013-06-20 05:36:00,
2013-06-19 22:41:00,56.4,52.0,30.88,ENE,68,0.0,0.0,85,0.00,,OVC065,0.00,VWS V14.00,2013-06-20 05:41:00,
2013-06-19 22:46:00,56.4,51.6,30.88,ENE,68,0.0,0.0,84,0.00,,OVC065,0.00,VWS V14.00,2013-06-20 05:46:00,
2013-06-19 22:51:00,56.4,51.3,30.88,NE,45,0.0,0.0,83,0.00,,OVC065,0.00,VWS V14.00,2013-06-20 05:51:00,
2013-06-19 22:56:00,56.4,51.0,30.88,NE,45,0.0,0.0,82,0.00,,OVC065,0.00,VWS V14.00,2013-06-20 05:56:00,
2013-06-19 23:01:00,56.3,50.9,30.88,NE,45,0.0,0.0,82,0.00,,OVC065,0.00,VWS V14.00,2013-06-20 06:01:00,
2013-06-19 23:06:00,56.1,50.0,30.87,NE,45,0.0,0.0,80,0.00,,OVC070,0.00,VWS V14.00,2013-06-20 06:06:00,
2013-06-19 23:11:00,56.1,49.7,30.87,NE,45,0.0,0.0,79,0.00,,OVC070,0.00,VWS V14.00,2013-06-20 06:11:00,
2013-06-19 23:16:00,55.9,49.2,30.87,NNW,338,0.0,0.0,78,0.00,,OVC070,0.00,VWS V14.00,2013-06-20 06:16:00,
2013-06-19 23:21:00,55.7,48.6,30.87,NNW,338,0.0,0.0,77,0.00,,OVC070,0.00,VWS V14.00,2013-06-20 06:21:00,
2013-06-19 23:26:00,55.4,48.3,30.87,NNW,338,0.0,0.0,77,0.00,,OVC070,0.00,VWS V14.00,2013-06-20 06:26:00,
2013-06-19 23:31:00,55.2,48.5,30.87,NNW,338,0.0,0.0,78,0.00,,OVC070,0.00,VWS V14.00,2013-06-20 06:31:00,
2013-06-19 23:36:00,55.2,48.5,30.87,NW,315,0.0,0.0,78,0.00,,OVC070,0.00,VWS V14.00,2013-06-20 06:36:00,
2013-06-19 23:41:00,55.2,48.5,30.88,WNW,292,0.0,0.0,78,0.00,,OVC070,0.00,VWS V14.00,2013-06-20 06:41:00,
2013-06-19 23:46:00,55.2,48.8,30.88,WNW,292,0.0,0.0,79,0.00,,OVC070,0.00,VWS V14.00,2013-06-20 06:46:00,
2013-06-19 23:51:00,55.2,48.8,30.87,SSW,202,0.0,0.0,79,0.00,,OVC070,0.00,VWS V14.00,2013-06-20 06:51:00,
2013-06-19 23:56:00,55.2,48.8,30.88,SSW,202,1.5,1.5,79,0.00,,OVC070,0.00,VWS V14.00,2013-06-20 06:56:00,